Avon, Colorado
Current Conditions -  °F | °C
As of 12:15 AM on Friday 28 Nov 2014 (Local Time) from KEGE Reporting Station
Clear Clear  
Wind Chill: 27°   Ceiling: Unl
Heat Index: 27°   Visibility: 10mi
Dew Point: 25°   Wind: 0mph
Humidity: 93%   Direction: NA
Pressure: 30.32"   Gusts: NA
Location:  39.63°N, 106.52°W
Report Text: KEGE 280715Z AUTO 00000KT 10SM CLR M03/M04 A3032 RMK AO1
Loading
Personal Weather Stations






























Interactive Weather Map New forecast layout! Learn more

10-Day Weather Forecast

Advertisements
Track Severe Weather on mobile